createdAt,value
2022-07-29T00:00:10.999Z,13.55
2022-07-29T00:02:58.339Z,13.51
2022-07-29T00:05:25.971Z,13.51
2022-07-29T00:07:53.088Z,13.45
2022-07-29T00:10:22.513Z,13.37
2022-07-29T00:12:49.973Z,13.37
2022-07-29T00:15:17.299Z,13.38
2022-07-29T00:17:44.497Z,13.37
2022-07-29T00:20:12.193Z,13.39
2022-07-29T00:22:40.261Z,13.29
2022-07-29T00:25:09.215Z,13.42
2022-07-29T00:27:37.645Z,13.43
2022-07-29T00:30:06.257Z,13.48
2022-07-29T00:32:33.522Z,13.44
2022-07-29T00:35:19.983Z,13.42
2022-07-29T00:37:47.272Z,13.44
2022-07-29T00:40:14.651Z,13.43
2022-07-29T00:42:49.808Z,13.42
2022-07-29T00:45:17.912Z,13.35
2022-07-29T00:47:45.973Z,13.30
2022-07-29T00:50:14.463Z,13.32
2022-07-29T00:52:43.080Z,13.32
2022-07-29T00:55:16.103Z,13.25
2022-07-29T00:57:44.829Z,13.07
2022-07-29T01:00:18.433Z,13.06
2022-07-29T01:02:49.265Z,13.10
2022-07-29T01:05:19.779Z,13.01
2022-07-29T01:07:48.062Z,12.91
2022-07-29T01:10:16.103Z,12.89
2022-07-29T01:12:44.905Z,12.93
2022-07-29T01:15:12.476Z,12.92
2022-07-29T01:18:18.290Z,12.77
2022-07-29T01:20:56.937Z,12.65
2022-07-29T01:23:45.717Z,12.69
2022-07-29T01:26:22.430Z,12.69
2022-07-29T01:28:59.230Z,12.63
2022-07-29T01:31:36.597Z,12.66
2022-07-29T01:34:10.112Z,12.68
2022-07-29T01:36:50.256Z,12.63
2022-07-29T01:39:21.194Z,12.55
2022-07-29T01:42:08.762Z,12.56
2022-07-29T01:44:41.167Z,12.61
2022-07-29T01:47:13.875Z,12.60
2022-07-29T01:49:44.539Z,12.57
2022-07-29T01:52:21.520Z,12.60
2022-07-29T01:54:57.354Z,12.59
2022-07-29T01:57:28.257Z,12.51
2022-07-29T01:59:55.983Z,12.47
2022-07-29T02:02:23.767Z,12.40
2022-07-29T02:04:51.342Z,12.38
2022-07-29T02:07:21.291Z,12.42
2022-07-29T02:09:49.299Z,12.37
2022-07-29T02:12:19.245Z,12.30
2022-07-29T02:14:49.932Z,12.25
2022-07-29T02:17:22.959Z,12.24
2022-07-29T02:19:50.547Z,12.17
2022-07-29T02:22:19.806Z,12.21
2022-07-29T02:24:48.720Z,12.12
2022-07-29T02:27:16.832Z,12.04
2022-07-29T02:29:44.381Z,12.00
2022-07-29T02:32:12.610Z,11.94
2022-07-29T02:34:41.117Z,11.91
2022-07-29T02:37:10.663Z,11.89
2022-07-29T02:39:38.730Z,11.87
2022-07-29T02:42:08.831Z,11.86
2022-07-29T02:44:36.184Z,11.85
2022-07-29T02:47:18.744Z,11.82
2022-07-29T02:50:12.601Z,11.83
2022-07-29T02:52:45.609Z,11.74
2022-07-29T02:55:37.213Z,11.77
2022-07-29T02:58:29.301Z,11.76
2022-07-29T03:01:06.459Z,11.80
2022-07-29T03:03:37.825Z,11.82
2022-07-29T03:06:06.351Z,11.85
2022-07-29T03:08:33.894Z,11.85
2022-07-29T03:11:02.279Z,11.85
2022-07-29T03:13:30.661Z,11.83
2022-07-29T03:15:59.067Z,11.81
2022-07-29T03:18:26.979Z,11.81
2022-07-29T03:20:54.310Z,11.81
2022-07-29T03:23:23.778Z,11.81
2022-07-29T03:25:51.819Z,11.81
2022-07-29T03:28:20.504Z,11.80
2022-07-29T03:30:49.776Z,11.82
2022-07-29T03:33:17.270Z,11.90
2022-07-29T03:35:44.461Z,11.93
2022-07-29T03:38:11.640Z,11.95
2022-07-29T03:40:44.455Z,12.11
2022-07-29T03:43:12.411Z,12.04
2022-07-29T03:45:40.250Z,12.12
2022-07-29T03:48:10.045Z,12.17
2022-07-29T03:50:37.496Z,12.24
2022-07-29T03:53:04.943Z,12.23
2022-07-29T03:55:43.526Z,12.31
2022-07-29T03:58:12.096Z,12.30
2022-07-29T04:00:39.928Z,12.40
2022-07-29T04:03:10.680Z,12.51
2022-07-29T04:05:39.535Z,12.48
2022-07-29T04:08:06.841Z,12.62
2022-07-29T04:10:34.248Z,12.58
2022-07-29T04:13:03.342Z,12.66
2022-07-29T04:15:31.865Z,12.79
2022-07-29T04:18:00.181Z,12.91
2022-07-29T04:20:27.954Z,13.05
2022-07-29T04:22:55.311Z,13.18
2022-07-29T04:25:22.598Z,13.27
2022-07-29T04:28:01.775Z,13.32
2022-07-29T04:30:30.144Z,13.37
2022-07-29T04:32:57.383Z,13.56
2022-07-29T04:35:24.684Z,13.70
2022-07-29T04:37:51.994Z,13.80
2022-07-29T04:40:19.417Z,13.87
2022-07-29T04:42:47.791Z,14.00
2022-07-29T04:45:16.086Z,14.08
2022-07-29T04:47:43.378Z,14.21
2022-07-29T04:50:10.994Z,14.32
2022-07-29T04:52:38.551Z,14.41
2022-07-29T04:55:06.508Z,14.51
2022-07-29T04:57:33.687Z,14.71
2022-07-29T05:00:01.234Z,14.85
2022-07-29T05:02:28.482Z,14.88
2022-07-29T05:04:55.687Z,15.19
2022-07-29T05:07:23.281Z,15.27
2022-07-29T05:09:50.455Z,15.46
2022-07-29T05:12:19.805Z,15.63
2022-07-29T05:14:47.152Z,15.84
2022-07-29T05:17:14.474Z,16.08
2022-07-29T05:19:41.784Z,16.42
2022-07-29T05:22:09.489Z,16.57
2022-07-29T05:24:36.712Z,16.88
2022-07-29T05:27:03.930Z,17.22
2022-07-29T05:29:44.153Z,17.41
2022-07-29T05:32:13.733Z,17.69
2022-07-29T05:34:50.825Z,17.96
2022-07-29T05:37:21.871Z,18.12
2022-07-29T05:39:56.190Z,18.25
2022-07-29T05:42:25.321Z,18.26
2022-07-29T05:44:53.274Z,18.44
2022-07-29T05:47:20.393Z,18.63
2022-07-29T05:49:47.603Z,18.87
2022-07-29T05:52:15.417Z,18.86
2022-07-29T05:54:42.625Z,18.85
2022-07-29T05:57:10.054Z,18.92
2022-07-29T05:59:38.242Z,18.91
2022-07-29T06:02:06.156Z,19.09
2022-07-29T06:04:34.741Z,19.20
2022-07-29T06:07:02.868Z,19.26
2022-07-29T06:09:30.585Z,19.24
2022-07-29T06:11:58.916Z,19.28
2022-07-29T06:14:27.554Z,19.31
2022-07-29T06:16:54.947Z,19.50
2022-07-29T06:19:22.254Z,19.59
2022-07-29T06:21:51.179Z,19.76
2022-07-29T06:24:19.059Z,19.98
2022-07-29T06:26:46.641Z,19.98
2022-07-29T06:29:14.156Z,20.00
2022-07-29T06:31:41.533Z,19.93
2022-07-29T06:34:08.820Z,19.96
2022-07-29T06:36:39.828Z,20.11
2022-07-29T06:39:09.128Z,20.31
2022-07-29T06:41:36.753Z,20.42
2022-07-29T06:44:10.417Z,20.62
2022-07-29T06:46:37.741Z,20.76
2022-07-29T06:49:05.919Z,20.74
2022-07-29T06:51:33.383Z,21.05
2022-07-29T06:54:03.362Z,21.31
2022-07-29T06:56:38.605Z,21.48
2022-07-29T06:59:10.812Z,21.59
2022-07-29T07:01:39.540Z,21.60
2022-07-29T07:04:07.134Z,21.93
2022-07-29T07:06:34.664Z,21.62
2022-07-29T07:09:02.200Z,21.56
2022-07-29T07:11:29.789Z,21.69
2022-07-29T07:14:02.453Z,21.35
2022-07-29T07:16:30.837Z,21.46
2022-07-29T07:18:58.234Z,21.52
2022-07-29T07:21:25.518Z,21.63
2022-07-29T07:23:52.659Z,21.69
2022-07-29T07:26:20.185Z,21.99
2022-07-29T07:28:47.329Z,22.06
2022-07-29T07:31:15.243Z,22.01
2022-07-29T07:33:42.762Z,22.06
2022-07-29T07:36:09.972Z,22.19
2022-07-29T07:38:37.068Z,22.31
2022-07-29T07:41:04.614Z,22.35
2022-07-29T07:43:31.927Z,22.34
2022-07-29T07:45:59.354Z,22.28
2022-07-29T07:48:26.839Z,21.94
2022-07-29T07:50:54.069Z,21.87
2022-07-29T07:53:22.207Z,21.92
2022-07-29T07:58:37.304Z,22.38
2022-07-29T08:01:04.797Z,22.33
2022-07-29T08:03:31.928Z,22.22
2022-07-29T08:05:59.480Z,22.47
2022-07-29T08:08:26.779Z,22.68
2022-07-29T08:10:53.932Z,22.74
2022-07-29T08:13:22.754Z,23.02
2022-07-29T08:15:58.856Z,22.99
2022-07-29T08:18:27.452Z,23.13
2022-07-29T08:20:55.171Z,23.17
2022-07-29T08:23:23.744Z,23.23
2022-07-29T08:25:52.583Z,23.51
2022-07-29T08:28:25.756Z,23.56
2022-07-29T08:30:53.694Z,23.72
2022-07-29T08:33:20.927Z,23.74
2022-07-29T08:35:48.239Z,23.50
2022-07-29T08:38:15.651Z,23.76
2022-07-29T08:40:43.003Z,23.60
2022-07-29T08:43:10.601Z,23.72
2022-07-29T08:45:44.822Z,23.58
2022-07-29T08:48:21.585Z,23.71
2022-07-29T08:50:51.450Z,23.77
2022-07-29T08:53:19.771Z,23.74
2022-07-29T08:55:49.255Z,23.54
2022-07-29T08:58:17.868Z,23.40
2022-07-29T09:00:56.969Z,22.90
2022-07-29T09:03:27.311Z,23.02
2022-07-29T09:05:54.992Z,22.75
2022-07-29T09:08:22.440Z,22.86
2022-07-29T09:10:50.274Z,22.72
2022-07-29T09:13:17.714Z,22.54
2022-07-29T09:15:45.571Z,22.62
2022-07-29T09:18:19.501Z,22.90
2022-07-29T09:21:16.454Z,22.62
2022-07-29T09:24:00.634Z,22.65
2022-07-29T09:26:32.499Z,22.90
2022-07-29T09:29:00.452Z,23.08
2022-07-29T09:31:36.315Z,22.97
2022-07-29T09:34:04.881Z,22.81
2022-07-29T09:36:32.210Z,22.69
2022-07-29T09:39:04.188Z,22.70
2022-07-29T09:41:45.459Z,22.51
2022-07-29T09:44:12.753Z,22.27
2022-07-29T09:46:40.366Z,22.08
2022-07-29T09:49:13.445Z,21.97
2022-07-29T09:51:41.425Z,22.19
2022-07-29T09:54:28.653Z,22.49
2022-07-29T09:56:56.919Z,23.06
2022-07-29T09:59:27.597Z,22.94
2022-07-29T10:01:55.482Z,22.69
2022-07-29T10:04:23.327Z,22.85
2022-07-29T10:07:04.856Z,22.96
2022-07-29T10:09:34.302Z,23.04
2022-07-29T10:12:08.120Z,23.02
2022-07-29T10:14:35.660Z,22.84
2022-07-29T10:17:04.628Z,22.85
2022-07-29T10:19:32.613Z,22.75
2022-07-29T10:22:00.882Z,22.66
2022-07-29T10:24:29.059Z,22.56
2022-07-29T10:26:56.906Z,22.70
2022-07-29T10:29:26.023Z,22.82
2022-07-29T10:32:23.945Z,23.01
2022-07-29T10:35:29.024Z,23.05
2022-07-29T10:38:17.469Z,23.15
2022-07-29T10:41:19.446Z,23.35
2022-07-29T10:43:48.073Z,23.32
2022-07-29T10:46:19.563Z,23.53
2022-07-29T10:49:15.303Z,23.66
2022-07-29T10:52:06.773Z,23.80
2022-07-29T10:54:44.109Z,23.81
2022-07-29T11:00:16.866Z,23.85
2022-07-29T11:02:46.932Z,23.77
2022-07-29T11:05:20.182Z,23.86
2022-07-29T11:08:26.023Z,23.97
2022-07-29T11:11:19.956Z,23.83
2022-07-29T11:13:52.315Z,23.75
2022-07-29T11:16:23.131Z,23.66
2022-07-29T11:19:11.326Z,23.73
2022-07-29T11:21:53.715Z,23.66
2022-07-29T11:27:18.160Z,23.77
2022-07-29T11:30:06.184Z,23.96
2022-07-29T11:32:40.066Z,23.90
2022-07-29T11:35:17.548Z,23.77
2022-07-29T11:37:52.225Z,23.62
2022-07-29T11:40:23.094Z,23.64
2022-07-29T11:42:51.911Z,23.77
2022-07-29T11:51:12.077Z,24.11
2022-07-29T11:53:40.925Z,24.37
2022-07-29T11:56:10.389Z,24.40
2022-07-29T11:58:38.302Z,24.59
2022-07-29T12:01:07.319Z,24.47
2022-07-29T12:03:36.874Z,24.55
2022-07-29T12:06:13.472Z,24.37
2022-07-29T12:07:03.911Z,24.04
2022-07-29T12:08:43.627Z,24.22
2022-07-29T12:11:23.388Z,24.10
2022-07-29T12:13:52.169Z,24.14
2022-07-29T12:16:26.080Z,24.10
2022-07-29T12:19:02.142Z,24.13
2022-07-29T12:21:31.037Z,24.28
2022-07-29T12:24:05.758Z,24.53
2022-07-29T12:26:36.620Z,24.45
2022-07-29T12:29:11.329Z,24.53
2022-07-29T12:31:43.256Z,24.66
2022-07-29T12:34:14.232Z,24.60
2022-07-29T12:36:43.106Z,24.38
2022-07-29T12:39:11.641Z,24.16
2022-07-29T12:41:40.018Z,24.08
2022-07-29T12:44:07.369Z,23.93
2022-07-29T12:46:34.682Z,23.77
2022-07-29T12:49:04.157Z,23.70
2022-07-29T12:51:37.742Z,23.63
2022-07-29T12:54:14.478Z,23.59
2022-07-29T12:56:44.295Z,23.63
2022-07-29T12:59:21.065Z,23.61
2022-07-29T13:01:50.442Z,23.55
2022-07-29T13:04:31.742Z,23.51
2022-07-29T13:07:10.454Z,23.55
2022-07-29T13:09:39.053Z,23.56
2022-07-29T13:12:11.197Z,23.58
2022-07-29T13:14:40.719Z,23.50
2022-07-29T13:17:22.395Z,23.42
2022-07-29T13:19:54.654Z,23.41
2022-07-29T13:22:23.818Z,23.45
2022-07-29T13:24:55.077Z,23.54
2022-07-29T13:27:24.534Z,23.54
2022-07-29T13:29:57.403Z,23.64
2022-07-29T13:32:28.745Z,23.63
2022-07-29T13:34:57.681Z,23.66
2022-07-29T13:37:25.216Z,23.74
2022-07-29T13:39:53.614Z,23.77
2022-07-29T13:42:20.973Z,23.77
2022-07-29T13:44:49.671Z,23.94
2022-07-29T13:47:17.349Z,24.05
2022-07-29T13:49:44.901Z,24.21
2022-07-29T13:52:12.114Z,24.31
2022-07-29T13:54:42.353Z,24.43
2022-07-29T13:57:14.105Z,24.37
2022-07-29T13:59:42.998Z,24.40
2022-07-29T14:02:11.428Z,24.32
2022-07-29T14:04:39.689Z,24.10
2022-07-29T14:07:07.474Z,24.10
2022-07-29T14:09:41.089Z,24.08
2022-07-29T14:12:09.682Z,23.96
2022-07-29T14:14:37.771Z,23.79
2022-07-29T14:17:07.598Z,23.71
2022-07-29T14:19:39.357Z,23.74
2022-07-29T14:22:08.523Z,23.81
2022-07-29T14:24:37.702Z,23.82
2022-07-29T14:27:08.905Z,23.86
2022-07-29T14:29:37.765Z,23.75
2022-07-29T14:32:08.201Z,23.88
2022-07-29T14:34:39.132Z,23.87
2022-07-29T14:37:07.267Z,23.90
2022-07-29T14:39:42.677Z,24.03
2022-07-29T14:42:12.767Z,23.93
2022-07-29T14:44:42.099Z,23.91
2022-07-29T14:47:09.552Z,24.05
2022-07-29T14:49:37.223Z,24.03
2022-07-29T14:52:05.318Z,24.12
2022-07-29T14:54:32.452Z,24.11
2022-07-29T14:56:59.969Z,23.95
2022-07-29T14:59:27.446Z,23.98
2022-07-29T15:01:54.933Z,23.97
2022-07-29T15:04:22.709Z,23.88
2022-07-29T15:06:50.237Z,23.94
2022-07-29T15:09:17.517Z,23.75
2022-07-29T15:11:45.330Z,23.77
2022-07-29T15:14:12.559Z,23.62
2022-07-29T15:16:41.923Z,23.57
2022-07-29T15:19:12.069Z,23.65
2022-07-29T15:21:41.448Z,23.77
2022-07-29T15:24:17.433Z,23.79
2022-07-29T15:26:45.657Z,23.84
2022-07-29T15:29:13.057Z,23.79
2022-07-29T15:31:40.673Z,23.89
2022-07-29T15:34:08.778Z,23.93
2022-07-29T15:36:51.467Z,23.83
2022-07-29T15:39:21.097Z,23.72
2022-07-29T15:41:48.425Z,23.62
2022-07-29T15:44:15.651Z,23.68
2022-07-29T15:47:02.199Z,23.67
2022-07-29T15:49:47.763Z,23.68
2022-07-29T15:52:26.215Z,23.69
2022-07-29T15:54:57.998Z,23.63
2022-07-29T15:57:25.765Z,23.55
2022-07-29T15:59:53.354Z,23.58
2022-07-29T16:02:20.764Z,23.69
2022-07-29T16:04:48.347Z,23.67
2022-07-29T16:07:15.791Z,23.61
2022-07-29T16:09:45.469Z,23.65
2022-07-29T16:12:18.786Z,23.67
2022-07-29T16:14:46.004Z,23.62
2022-07-29T16:17:14.494Z,23.51
2022-07-29T16:19:43.526Z,23.33
2022-07-29T16:22:11.526Z,23.37
2022-07-29T16:24:39.485Z,23.28
2022-07-29T16:27:07.542Z,23.43
2022-07-29T16:29:34.850Z,23.44
2022-07-29T16:32:02.160Z,23.31
2022-07-29T16:34:29.747Z,23.22
2022-07-29T16:36:56.942Z,23.13
2022-07-29T16:39:23.979Z,23.14
2022-07-29T16:41:51.592Z,23.19
2022-07-29T16:44:18.753Z,23.38
2022-07-29T16:46:45.955Z,23.44
2022-07-29T16:49:18.360Z,23.37
2022-07-29T16:51:47.959Z,23.36
2022-07-29T16:54:15.606Z,23.31
2022-07-29T16:56:42.803Z,23.32
2022-07-29T16:59:09.922Z,23.36
2022-07-29T17:01:37.619Z,23.36
2022-07-29T17:04:07.912Z,23.35
2022-07-29T17:06:39.866Z,23.39
2022-07-29T17:09:10.253Z,23.27
2022-07-29T17:11:52.781Z,23.26
2022-07-29T17:14:30.532Z,23.00
2022-07-29T17:17:03.275Z,23.01
2022-07-29T17:19:32.828Z,23.01
2022-07-29T17:22:09.396Z,23.00
2022-07-29T17:24:40.262Z,22.82
2022-07-29T17:27:09.339Z,22.78
2022-07-29T17:29:36.855Z,22.68
2022-07-29T17:32:07.543Z,22.52
2022-07-29T17:34:36.657Z,22.54
2022-07-29T17:37:05.678Z,22.35
2022-07-29T17:39:35.152Z,22.29
2022-07-29T17:42:03.870Z,22.16
2022-07-29T17:44:31.389Z,22.15
2022-07-29T17:47:04.740Z,22.05
2022-07-29T17:49:32.046Z,22.02
2022-07-29T17:52:01.049Z,21.95
2022-07-29T17:54:28.923Z,22.05
2022-07-29T17:56:56.338Z,21.87
2022-07-29T17:59:23.823Z,21.75
2022-07-29T18:01:51.380Z,21.62
2022-07-29T18:04:21.127Z,21.56
2022-07-29T18:06:48.458Z,21.48
2022-07-29T18:09:15.933Z,21.39
2022-07-29T18:11:44.558Z,21.32
2022-07-29T18:14:13.553Z,21.25
2022-07-29T18:16:41.422Z,21.17
2022-07-29T18:19:08.809Z,21.11
2022-07-29T18:21:43.572Z,20.99
2022-07-29T18:24:27.600Z,20.92
2022-07-29T18:26:55.351Z,20.92
2022-07-29T18:29:22.654Z,20.79
2022-07-29T18:31:50.338Z,20.68
2022-07-29T18:34:17.973Z,20.61
2022-07-29T18:36:46.043Z,20.51
2022-07-29T18:39:19.671Z,20.48
2022-07-29T18:41:51.890Z,20.38
2022-07-29T18:44:21.950Z,20.48
2022-07-29T18:46:51.623Z,20.43
2022-07-29T18:49:19.275Z,20.34
2022-07-29T18:51:47.007Z,20.19
2022-07-29T18:54:14.290Z,20.08
2022-07-29T18:56:41.434Z,19.97
2022-07-29T18:59:08.889Z,19.91
2022-07-29T19:01:37.863Z,19.94
2022-07-29T19:04:05.348Z,19.72
2022-07-29T19:06:32.889Z,19.62
2022-07-29T19:09:00.271Z,19.60
2022-07-29T19:11:27.450Z,19.58
2022-07-29T19:13:54.966Z,19.40
2022-07-29T19:16:22.277Z,19.36
2022-07-29T19:18:49.571Z,19.31
2022-07-29T19:21:17.388Z,19.29
2022-07-29T19:24:05.220Z,19.19
2022-07-29T19:26:36.511Z,19.27
2022-07-29T19:29:04.386Z,19.11
2022-07-29T19:31:31.735Z,18.96
2022-07-29T19:33:59.294Z,18.96
2022-07-29T19:36:27.321Z,18.80
2022-07-29T19:38:54.524Z,18.67
2022-07-29T19:41:21.875Z,18.71
2022-07-29T19:43:50.632Z,18.72
2022-07-29T19:46:23.519Z,18.56
2022-07-29T19:48:52.946Z,18.42
2022-07-29T19:51:20.233Z,18.37
2022-07-29T19:53:47.494Z,18.30
2022-07-29T19:56:15.179Z,18.28
2022-07-29T19:58:44.152Z,18.23
2022-07-29T20:01:12.620Z,18.21
2022-07-29T20:03:40.346Z,18.09
2022-07-29T20:06:07.879Z,18.12
2022-07-29T20:08:35.038Z,18.00
2022-07-29T20:11:03.429Z,17.98
2022-07-29T20:13:33.058Z,17.99
2022-07-29T20:16:01.244Z,17.99
2022-07-29T20:18:28.862Z,17.89
2022-07-29T20:20:57.601Z,17.81
2022-07-29T20:23:25.011Z,17.78
2022-07-29T20:25:52.675Z,17.78
2022-07-29T20:28:22.415Z,17.89
2022-07-29T20:30:49.722Z,17.70
2022-07-29T20:33:17.166Z,17.70
2022-07-29T20:35:44.352Z,17.56
2022-07-29T20:38:13.976Z,17.53
2022-07-29T20:40:45.439Z,17.48
2022-07-29T20:43:12.682Z,17.44
2022-07-29T20:45:40.066Z,17.46
2022-07-29T20:48:08.306Z,17.34
2022-07-29T20:50:35.997Z,17.38
2022-07-29T20:53:03.479Z,17.36
2022-07-29T20:55:32.167Z,17.34
2022-07-29T20:57:59.361Z,17.34
2022-07-29T21:00:26.651Z,17.32
2022-07-29T21:02:54.284Z,17.13
2022-07-29T21:05:21.512Z,17.14
2022-07-29T21:07:48.888Z,17.11
2022-07-29T21:10:18.287Z,17.06
2022-07-29T21:12:48.731Z,17.01
2022-07-29T21:15:16.353Z,16.97
2022-07-29T21:17:47.343Z,16.87
2022-07-29T21:20:16.272Z,16.88
2022-07-29T21:22:43.393Z,16.77
2022-07-29T21:25:11.493Z,16.79
2022-07-29T21:27:57.305Z,16.77
2022-07-29T21:30:24.784Z,16.65
2022-07-29T21:32:51.986Z,16.76
2022-07-29T21:36:02.118Z,16.70
2022-07-29T21:38:06.532Z,16.60
2022-07-29T21:40:33.727Z,16.54
2022-07-29T21:43:00.955Z,16.52
2022-07-29T21:45:28.562Z,16.67
2022-07-29T21:47:55.806Z,16.51
2022-07-29T21:50:22.953Z,16.53
2022-07-29T21:52:50.301Z,16.46
2022-07-29T21:55:18.609Z,16.46
2022-07-29T21:57:46.581Z,16.51
2022-07-29T22:00:17.134Z,16.36
2022-07-29T22:02:45.053Z,16.43
2022-07-29T22:05:12.538Z,16.34
2022-07-29T22:07:56.208Z,16.43
2022-07-29T22:10:29.513Z,16.45
2022-07-29T22:12:58.406Z,16.46
2022-07-29T22:15:26.465Z,16.39
2022-07-29T22:17:53.820Z,16.37
2022-07-29T22:20:21.616Z,16.41
2022-07-29T22:22:48.927Z,16.40
2022-07-29T22:25:16.650Z,16.35
2022-07-29T22:27:44.525Z,16.47
2022-07-29T22:30:12.222Z,16.54
2022-07-29T22:32:39.845Z,16.46
2022-07-29T22:35:07.636Z,16.43
2022-07-29T22:37:34.913Z,16.56
2022-07-29T22:40:02.370Z,16.47
2022-07-29T22:42:30.495Z,16.57
2022-07-29T22:44:57.621Z,16.56
2022-07-29T22:47:46.062Z,16.41
2022-07-29T22:50:12.318Z,16.43
2022-07-29T22:52:39.493Z,16.44
2022-07-29T22:55:07.250Z,16.48
2022-07-29T22:57:34.800Z,16.45
2022-07-29T23:00:02.438Z,16.43
2022-07-29T23:02:29.804Z,16.36
2022-07-29T23:04:57.454Z,16.29
2022-07-29T23:07:24.587Z,16.26
2022-07-29T23:09:52.047Z,16.31
2022-07-29T23:12:19.371Z,16.26
2022-07-29T23:14:46.603Z,16.35
2022-07-29T23:17:13.930Z,16.25
2022-07-29T23:19:41.243Z,16.40
2022-07-29T23:22:08.762Z,16.30
2022-07-29T23:24:35.851Z,16.31
2022-07-29T23:27:03.800Z,16.24
2022-07-29T23:29:36.238Z,16.28
2022-07-29T23:32:04.273Z,16.27
2022-07-29T23:34:31.391Z,16.23
2022-07-29T23:36:59.191Z,16.25
2022-07-29T23:39:26.801Z,16.24
2022-07-29T23:41:53.974Z,16.26
2022-07-29T23:44:21.390Z,16.21
2022-07-29T23:46:48.889Z,16.17
2022-07-29T23:49:16.318Z,16.07
2022-07-29T23:51:43.588Z,16.13
2022-07-29T23:54:11.062Z,16.10
2022-07-29T23:56:38.303Z,16.00
2022-07-29T23:59:05.939Z,15.96
